METAR rapporten vliegvelden

   
EHAM - Amsterdam
Gewijzigd: 20-09-2018 19:25
Helder  
Helder  
   Wind: WZW 18.5 km/h
Wind: WZW 18.5 km/h
Temperatuur: 19°C
Dauwpunt: 16°C
Vochtigheid: 83%
Barometer: 1010 hPa
Zicht: meer dan 10 km
Bewolking: Helder
EHAM 201725Z 25010KT CAVOK 19/16 Q1010 NOSIG
EHBK - Maastricht
Gewijzigd: 20-09-2018 19:25
Gedeeltelijk bewolkt  
Gedeeltelijk bewolkt  
   Wind: ZZW 16.7 km/h
Wind: ZZW 16.7 km/h
Temperatuur: 23°C
Dauwpunt: 11°C
Vochtigheid: 47%
Barometer: 1012 hPa
Bewolking: Gedeeltelijk bewolkt
Zicht: meer dan 10 km
Bewolking: Gedeeltelijk bewolkt
EHBK 201725Z AUTO 20009KT 170V230 9999 NSC 23/11 Q1012 NOSIG
ELLX - Luxemburg
Gewijzigd: 20-09-2018 19:20
Helder  
Helder  
   Wind: ZZW 13 km/h
Wind: ZZW 13 km/h
Temperatuur: 22°C
Dauwpunt: 11°C
Vochtigheid: 50%
Barometer: 1016 hPa
Zicht: meer dan 10 km
Bewolking: Helder
ELLX 201720Z 20007KT CAVOK 22/11 Q1016 NOSIG
EDDL - Dusseldorf
Gewijzigd: 20-09-2018 19:20
Helder  
Helder  
   Wind: ZW 13 km/h
Wind: ZW 13 km/h
Temperatuur: 22°C
Dauwpunt: 12°C
Vochtigheid: 53%
Barometer: 1012 hPa
Zicht: meer dan 10 km
Bewolking: Helder
EDDL 201720Z 22007KT CAVOK 22/12 Q1012 NOSIG
  

Script ontwikkeld door  Saratoga-weather.org Aangepast voor de template door  Weerstation Leuven